Grange-over-Sands, United Kingdom
Current Conditions -  °F | °C
As of 7:20 AM on Friday 19 Dec 2014 (Local Time) from EGNH Reporting Station
Few Clouds Few Clouds  
Wind Chill: 38°   Ceiling: Unl
Heat Index: 46°   Visibility: 6mi
Dew Point: 37°   Wind: 25mph
Humidity: 71%   Direction: 270°W
Pressure: 29.77"   Gusts: NA
Location:  54.2°N, 2.9°W
Report Text: EGNH 190720Z 27022KT 9999 FEW032 08/03 Q1008
Loading
Personal Weather Stations






























Interactive Weather Map New forecast layout! Learn more

10-Day Weather Forecast

Advertisements
Track Severe Weather on mobile